LIPZ/VCE METAR and TAF weather

Enter ICAO airport designator
Station Type Date Time Source
LIPZ METAR 2019/04/20 18:20 UTC NOAA

LIPZ 201820Z 24004KT 230V300 CAVOK 18/09 Q1023 NOSIG


Station Type Date Time Source
LIPZ Decoded METAR 2019/04/20 18:20 UTC NOAA

Venezia / Tessera, Italy (LIPZ) 45-30N 012-20E 6M
Apr 20, 2019 - 02:20 PM EDT / 2019.04.20 1820 UTC
Wind: from the WSW (240 degrees) at 5 MPH (4 KT) (direction variable):0
Visibility: greater than 7 mile(s):0
Temperature: 64 F (18 C)
Dew Point: 48 F (9 C)
Relative Humidity: 55%
Pressure (altimeter): 30.21 in. Hg (1023 hPa)
ob: LIPZ 201820Z 24004KT 230V300 CAVOK 18/09 Q1023 NOSIG
cycle: 18

Station Type Date Time Source
LIPZ TAF 2019/04/20 18:21 UTC NOAA

TAF LIPZ 201700Z 2018/2124 VRB05KT CAVOK
BECMG 2109/2111 15010KT
BECMG 2117/2119 VRB05KT

Example: see airport list